Terminal Aerodrome Forecast
Issued by NWS

Home | Current Version | Previous Version | Text Only | Print | Product List | Glossary On
Versions: 1 2 3 4 5 6 7 8 9 10 11 12 13 14 15 16 17 18 19 20 21 22
000
FTUS46 KLOX 301100 AAA
TAFPRB
TAF AMD
KPRB 301135Z 3012/0112 VRB03KT P6SM BKN002
     FM301300 VRB03KT 3SM BR OVC002
     FM301500 VRB03KT 5SM BR OVC004
     FM301630 VRB03KT P6SM SKC
     FM302200 33008KT P6SM SKC
     FM010400 VRB03KT P6SM SKC=

USA.gov is the U.S. government's official web portal to all federal, state and local government web resources and services.